createdAt,value
2023-03-05T00:00:19.048Z,100941.47
2023-03-05T00:02:45.436Z,100942.38
2023-03-05T00:05:11.957Z,100941.59
2023-03-05T00:07:38.298Z,100931.56
2023-03-05T00:10:06.147Z,100933.66
2023-03-05T00:12:32.594Z,100926.75
2023-03-05T00:14:58.982Z,100929.13
2023-03-05T00:17:25.341Z,100918.16
2023-03-05T00:19:51.720Z,100913.41
2023-03-05T00:22:18.076Z,100925.41
2023-03-05T00:24:44.468Z,100917.69
2023-03-05T00:27:10.809Z,100915.84
2023-03-05T00:29:37.201Z,100897.59
2023-03-05T00:32:03.668Z,100898.97
2023-03-05T00:34:30.066Z,100889.69
2023-03-05T00:36:56.435Z,100885.97
2023-03-05T00:39:22.784Z,100884.06
2023-03-05T00:41:49.964Z,100890.13
2023-03-05T00:44:16.501Z,100879.06
2023-03-05T00:46:42.899Z,100877.91
2023-03-05T00:49:09.308Z,100869.50
2023-03-05T00:51:35.748Z,100866.72
2023-03-05T00:54:02.878Z,100867.72
2023-03-05T00:56:29.250Z,100864.47
2023-03-05T00:58:56.632Z,100862.66
2023-03-05T01:01:23.618Z,100855.06
2023-03-05T01:03:50.087Z,100853.00
2023-03-05T01:06:18.550Z,100852.47
2023-03-05T01:08:45.311Z,100843.19
2023-03-05T01:11:12.550Z,100844.00
2023-03-05T01:13:38.950Z,100834.84
2023-03-05T01:16:05.823Z,100845.94
2023-03-05T01:18:32.283Z,100846.06
2023-03-05T01:20:58.674Z,100844.13
2023-03-05T01:23:25.038Z,100839.63
2023-03-05T01:25:59.311Z,100839.22
2023-03-05T01:28:26.472Z,100834.13
2023-03-05T01:30:52.834Z,100834.00
2023-03-05T01:33:19.730Z,100825.75
2023-03-05T01:35:47.954Z,100843.13
2023-03-05T01:38:15.108Z,100821.38
2023-03-05T01:40:42.813Z,100831.72
2023-03-05T01:43:12.099Z,100823.31
2023-03-05T01:45:58.940Z,100824.28
2023-03-05T01:48:26.332Z,100803.50
2023-03-05T01:50:52.708Z,100818.72
2023-03-05T01:53:19.322Z,100813.19
2023-03-05T01:55:45.789Z,100811.41
2023-03-05T01:58:13.639Z,100808.59
2023-03-05T02:00:46.869Z,100814.50
2023-03-05T02:03:14.192Z,100817.75
2023-03-05T02:05:44.326Z,100814.66
2023-03-05T02:08:13.758Z,100814.38
2023-03-05T02:10:52.637Z,100809.50
2023-03-05T02:13:22.679Z,100807.31
2023-03-05T02:15:50.354Z,100803.31
2023-03-05T02:18:18.277Z,100806.94
2023-03-05T02:20:50.507Z,100791.47
2023-03-05T02:23:19.052Z,100792.25
2023-03-05T02:25:45.550Z,100796.00
2023-03-05T02:28:25.769Z,100788.78
2023-03-05T02:30:52.446Z,100792.91
2023-03-05T02:33:20.333Z,100793.56
2023-03-05T02:35:46.734Z,100791.38
2023-03-05T02:38:15.172Z,100787.50
2023-03-05T02:40:41.538Z,100780.69
2023-03-05T02:43:08.018Z,100772.56
2023-03-05T02:45:34.587Z,100768.34
2023-03-05T02:48:01.096Z,100762.28
2023-03-05T02:50:28.537Z,100771.78
2023-03-05T02:52:54.936Z,100761.38
2023-03-05T02:55:21.438Z,100760.47
2023-03-05T02:57:47.948Z,100754.44
2023-03-05T03:00:14.828Z,100746.84
2023-03-05T03:02:41.266Z,100749.56
2023-03-05T03:05:08.162Z,100757.66
2023-03-05T03:07:36.467Z,100746.97
2023-03-05T03:10:04.291Z,100745.94
2023-03-05T03:12:30.643Z,100736.03
2023-03-05T03:14:57.108Z,100745.81
2023-03-05T03:17:23.462Z,100738.50
2023-03-05T03:19:49.840Z,100751.22
2023-03-05T03:22:16.278Z,100735.50
2023-03-05T03:24:43.836Z,100734.09
2023-03-05T03:27:10.662Z,100726.50
2023-03-05T03:29:37.298Z,100731.91
2023-03-05T03:32:04.644Z,100729.75
2023-03-05T03:34:31.043Z,100724.59
2023-03-05T03:36:57.424Z,100717.91
2023-03-05T03:39:25.445Z,100717.63
2023-03-05T03:41:53.230Z,100722.38
2023-03-05T03:44:20.978Z,100713.78
2023-03-05T03:46:48.740Z,100719.97
2023-03-05T03:49:23.355Z,100709.16
2023-03-05T03:51:51.410Z,100710.31
2023-03-05T03:54:18.704Z,100707.13
2023-03-05T03:56:45.912Z,100713.28
2023-03-05T03:59:13.392Z,100708.66
2023-03-05T04:01:40.185Z,100709.59
2023-03-05T04:04:07.216Z,100703.94
2023-03-05T04:06:34.383Z,100691.72
2023-03-05T04:09:00.772Z,100706.25
2023-03-05T04:11:27.144Z,100696.59
2023-03-05T04:13:53.486Z,100697.13
2023-03-05T04:16:19.856Z,100713.59
2023-03-05T04:18:46.588Z,100682.47
2023-03-05T04:21:13.376Z,100689.94
2023-03-05T04:23:39.775Z,100695.47
2023-03-05T04:26:06.502Z,100680.44
2023-03-05T04:28:33.376Z,100680.94
2023-03-05T04:30:59.944Z,100685.16
2023-03-05T04:33:26.417Z,100683.41
2023-03-05T04:35:53.073Z,100686.97
2023-03-05T04:38:19.456Z,100670.66
2023-03-05T04:40:46.338Z,100666.94
2023-03-05T04:43:12.717Z,100668.47
2023-03-05T04:45:40.596Z,100664.25
2023-03-05T04:48:08.158Z,100665.78
2023-03-05T04:50:34.707Z,100656.13
2023-03-05T04:53:01.527Z,100661.16
2023-03-05T04:55:27.998Z,100668.72
2023-03-05T04:57:54.365Z,100669.13
2023-03-05T05:00:21.701Z,100666.41
2023-03-05T05:02:50.249Z,100667.84
2023-03-05T05:05:19.712Z,100654.72
2023-03-05T05:07:46.174Z,100667.84
2023-03-05T05:10:13.610Z,100669.38
2023-03-05T05:12:39.997Z,100666.03
2023-03-05T05:15:07.943Z,100658.22
2023-03-05T05:17:34.910Z,100661.28
2023-03-05T05:20:01.940Z,100661.16
2023-03-05T05:22:29.213Z,100664.88
2023-03-05T05:24:56.364Z,100663.09
2023-03-05T05:27:22.795Z,100661.78
2023-03-05T05:29:52.896Z,100657.06
2023-03-05T05:32:20.936Z,100654.50
2023-03-05T05:34:47.351Z,100656.25
2023-03-05T05:37:13.706Z,100653.97
2023-03-05T05:39:40.077Z,100657.56
2023-03-05T05:42:06.767Z,100652.16
2023-03-05T05:44:34.835Z,100649.84
2023-03-05T05:47:01.606Z,100648.03
2023-03-05T05:49:27.981Z,100659.63
2023-03-05T05:51:54.458Z,100666.69
2023-03-05T05:54:20.805Z,100663.34
2023-03-05T05:56:47.168Z,100666.03
2023-03-05T05:59:13.531Z,100672.59
2023-03-05T06:01:39.969Z,100669.91
2023-03-05T06:04:06.376Z,100666.56
2023-03-05T06:06:34.873Z,100672.72
2023-03-05T06:09:01.770Z,100661.78
2023-03-05T06:11:28.194Z,100661.66
2023-03-05T06:13:54.732Z,100650.09
2023-03-05T06:16:23.981Z,100665.78
2023-03-05T06:18:51.954Z,100653.28
2023-03-05T06:21:20.338Z,100643.28
2023-03-05T06:23:47.766Z,100634.13
2023-03-05T06:26:17.802Z,100639.91
2023-03-05T06:28:44.291Z,100635.25
2023-03-05T06:31:13.363Z,100651.72
2023-03-05T06:33:40.738Z,100639.63
2023-03-05T06:36:09.692Z,100646.06
2023-03-05T06:38:36.665Z,100642.75
2023-03-05T06:41:06.094Z,100656.41
2023-03-05T06:43:33.504Z,100648.31
2023-03-05T06:46:07.790Z,100645.06
2023-03-05T06:48:34.771Z,100638.31
2023-03-05T06:51:01.316Z,100640.06
2023-03-05T06:53:27.814Z,100650.72
2023-03-05T06:55:54.213Z,100633.53
2023-03-05T06:58:21.662Z,100635.28
2023-03-05T07:00:48.139Z,100652.00
2023-03-05T07:03:14.582Z,100640.00
2023-03-05T07:05:41.827Z,100648.72
2023-03-05T07:08:08.595Z,100646.88
2023-03-05T07:10:40.253Z,100652.50
2023-03-05T07:13:07.504Z,100642.56
2023-03-05T07:15:34.288Z,100654.97
2023-03-05T07:18:00.677Z,100669.59
2023-03-05T07:20:27.097Z,100653.78
2023-03-05T07:22:53.457Z,100657.97
2023-03-05T07:25:21.535Z,100646.97
2023-03-05T07:27:48.579Z,100645.44
2023-03-05T07:30:15.171Z,100654.53
2023-03-05T07:32:41.589Z,100654.97
2023-03-05T07:35:08.279Z,100659.28
2023-03-05T07:37:34.822Z,100663.56
2023-03-05T07:40:01.317Z,100657.38
2023-03-05T07:42:27.827Z,100660.19
2023-03-05T07:44:54.431Z,100660.38
2023-03-05T07:47:20.824Z,100680.91
2023-03-05T07:49:47.204Z,100661.50
2023-03-05T07:52:13.635Z,100643.47
2023-03-05T07:54:40.001Z,100659.69
2023-03-05T07:57:08.241Z,100652.03
2023-03-05T07:59:35.247Z,100656.41
2023-03-05T08:02:01.650Z,100648.03
2023-03-05T08:04:29.882Z,100650.47
2023-03-05T08:06:56.268Z,100661.75
2023-03-05T08:09:22.632Z,100663.34
2023-03-05T08:11:49.016Z,100661.41
2023-03-05T08:14:15.430Z,100655.66
2023-03-05T08:16:41.836Z,100650.47
2023-03-05T08:19:10.559Z,100660.50
2023-03-05T08:21:36.940Z,100639.19
2023-03-05T08:24:06.205Z,100647.97
2023-03-05T08:26:34.599Z,100643.25
2023-03-05T08:29:01.018Z,100638.56
2023-03-05T08:31:30.162Z,100634.66
2023-03-05T08:33:58.792Z,100631.06
2023-03-05T08:36:25.220Z,100639.06
2023-03-05T08:38:51.709Z,100626.47
2023-03-05T08:41:19.229Z,100621.41
2023-03-05T08:43:45.841Z,100635.84
2023-03-05T08:46:13.129Z,100620.09
2023-03-05T08:48:40.097Z,100616.59
2023-03-05T08:51:18.998Z,100610.03
2023-03-05T08:53:46.573Z,100609.47
2023-03-05T08:56:14.118Z,100599.59
2023-03-05T08:58:40.475Z,100607.44
2023-03-05T09:01:06.930Z,100605.09
2023-03-05T09:03:33.631Z,100613.03
2023-03-05T09:06:05.822Z,100600.94
2023-03-05T09:08:32.483Z,100598.34
2023-03-05T09:10:58.843Z,100613.16
2023-03-05T09:13:25.352Z,100602.81
2023-03-05T09:15:59.945Z,100592.94
2023-03-05T09:18:26.802Z,100592.63
2023-03-05T09:20:54.172Z,100590.16
2023-03-05T09:23:20.697Z,100592.84
2023-03-05T09:25:47.353Z,100598.69
2023-03-05T09:28:13.704Z,100592.88
2023-03-05T09:30:40.121Z,100585.09
2023-03-05T09:33:06.541Z,100587.78
2023-03-05T09:35:37.003Z,100579.28
2023-03-05T09:38:04.465Z,100578.38
2023-03-05T09:40:43.087Z,100583.31
2023-03-05T09:43:21.268Z,100590.16
2023-03-05T09:46:01.327Z,100578.63
2023-03-05T09:48:50.954Z,100584.44
2023-03-05T09:51:27.678Z,100565.56
2023-03-05T09:54:01.685Z,100576.69
2023-03-05T09:56:36.685Z,100576.47
2023-03-05T09:59:19.985Z,100576.13
2023-03-05T10:01:48.902Z,100570.84
2023-03-05T10:04:25.798Z,100574.00
2023-03-05T10:07:12.247Z,100574.88
2023-03-05T10:09:45.789Z,100565.16
2023-03-05T10:12:42.701Z,100582.84
2023-03-05T10:15:14.695Z,100561.31
2023-03-05T10:18:14.106Z,100546.41
2023-03-05T10:20:56.149Z,100561.56
2023-03-05T10:23:29.465Z,100556.53
2023-03-05T10:26:21.165Z,100549.38
2023-03-05T10:28:57.488Z,100553.34
2023-03-05T10:31:36.120Z,100561.00
2023-03-05T10:34:21.157Z,100550.78
2023-03-05T10:37:16.419Z,100564.25
2023-03-05T10:40:02.595Z,100557.69
2023-03-05T10:43:00.660Z,100552.34
2023-03-05T10:45:36.432Z,100554.44
2023-03-05T10:48:15.344Z,100552.78
2023-03-05T10:50:48.782Z,100551.28
2023-03-05T10:53:27.530Z,100551.22
2023-03-05T10:55:56.483Z,100542.38
2023-03-05T10:58:24.825Z,100532.97
2023-03-05T11:01:24.314Z,100531.28
2023-03-05T11:03:58.672Z,100534.19
2023-03-05T11:06:40.890Z,100545.84
2023-03-05T11:09:29.209Z,100540.03
2023-03-05T11:12:20.358Z,100540.91
2023-03-05T11:15:03.164Z,100527.50
2023-03-05T11:17:37.754Z,100514.56
2023-03-05T11:20:29.222Z,100524.63
2023-03-05T11:23:06.557Z,100523.53
2023-03-05T11:25:34.800Z,100515.00
2023-03-05T11:28:03.023Z,100526.22
2023-03-05T11:30:31.261Z,100514.66
2023-03-05T11:33:10.607Z,100509.38
2023-03-05T11:35:40.101Z,100514.88
2023-03-05T11:38:14.875Z,100510.69
2023-03-05T11:40:41.332Z,100498.84
2023-03-05T11:43:15.580Z,100516.84
2023-03-05T11:45:43.386Z,100496.75
2023-03-05T11:48:19.824Z,100502.44
2023-03-05T11:50:51.991Z,100502.03
2023-03-05T11:53:29.395Z,100503.84
2023-03-05T11:56:05.212Z,100519.66
2023-03-05T11:58:40.966Z,100484.81
2023-03-05T12:01:15.309Z,100494.09
2023-03-05T12:03:42.538Z,100502.00
2023-03-05T12:06:17.809Z,100492.72
2023-03-05T12:08:53.628Z,100487.03
2023-03-05T12:11:28.487Z,100470.53
2023-03-05T12:14:21.688Z,100472.47
2023-03-05T12:17:07.617Z,100467.94
2023-03-05T12:19:45.871Z,100450.13
2023-03-05T12:22:19.952Z,100444.78
2023-03-05T12:24:47.430Z,100457.22
2023-03-05T12:27:16.459Z,100467.00
2023-03-05T12:29:44.403Z,100444.69
2023-03-05T12:32:23.148Z,100435.16
2023-03-05T12:35:10.626Z,100449.84
2023-03-05T12:37:52.035Z,100428.59
2023-03-05T12:40:48.075Z,100434.03
2023-03-05T12:43:32.162Z,100426.47
2023-03-05T12:46:25.081Z,100420.88
2023-03-05T12:48:52.072Z,100432.09
2023-03-05T12:51:40.613Z,100404.47
2023-03-05T12:54:35.922Z,100459.25
2023-03-05T12:57:27.680Z,100421.81
2023-03-05T13:00:06.110Z,100427.00
2023-03-05T13:02:38.388Z,100418.06
2023-03-05T13:05:14.959Z,100423.75
2023-03-05T13:07:41.368Z,100421.66
2023-03-05T13:10:22.492Z,100435.00
2023-03-05T13:12:52.996Z,100424.75
2023-03-05T13:15:21.860Z,100428.34
2023-03-05T13:18:03.462Z,100417.22
2023-03-05T13:20:38.340Z,100417.69
2023-03-05T13:23:38.183Z,100412.06
2023-03-05T13:26:18.704Z,100407.53
2023-03-05T13:29:09.176Z,100420.91
2023-03-05T13:31:40.676Z,100405.03
2023-03-05T13:34:20.461Z,100400.78
2023-03-05T13:36:53.170Z,100400.97
2023-03-05T13:39:43.860Z,100393.72
2023-03-05T13:42:23.597Z,100395.69
2023-03-05T13:45:06.881Z,100391.00
2023-03-05T13:47:35.531Z,100393.47
2023-03-05T13:50:05.838Z,100390.09
2023-03-05T13:52:35.124Z,100408.97
2023-03-05T13:55:03.841Z,100416.84
2023-03-05T13:57:42.469Z,100409.78
2023-03-05T14:00:31.987Z,100394.78
2023-03-05T14:03:08.787Z,100395.56
2023-03-05T14:05:35.260Z,100400.03
2023-03-05T14:08:02.436Z,100395.19
2023-03-05T14:10:37.595Z,100401.50
2023-03-05T14:13:11.704Z,100388.41
2023-03-05T14:15:38.296Z,100397.53
2023-03-05T14:18:10.778Z,100394.47
2023-03-05T14:20:38.959Z,100407.59
2023-03-05T14:23:34.508Z,100399.16
2023-03-05T14:26:32.542Z,100408.75
2023-03-05T14:29:06.381Z,100396.88
2023-03-05T14:31:50.938Z,100386.31
2023-03-05T14:34:26.588Z,100391.00
2023-03-05T14:36:55.581Z,100385.53
2023-03-05T14:39:38.012Z,100381.63
2023-03-05T14:42:26.869Z,100385.63
2023-03-05T14:44:55.716Z,100388.69
2023-03-05T14:47:26.236Z,100379.91
2023-03-05T14:49:53.024Z,100376.78
2023-03-05T14:52:22.913Z,100380.59
2023-03-05T14:54:49.715Z,100370.28
2023-03-05T14:57:23.594Z,100366.72
2023-03-05T14:59:50.058Z,100370.16
2023-03-05T15:02:18.572Z,100370.78
2023-03-05T15:04:48.467Z,100370.28
2023-03-05T15:07:41.641Z,100353.25
2023-03-05T15:10:08.680Z,100358.41
2023-03-05T15:12:35.091Z,100361.78
2023-03-05T15:15:01.526Z,100362.66
2023-03-05T15:17:37.159Z,100356.38
2023-03-05T15:20:08.016Z,100343.34
2023-03-05T15:22:34.554Z,100355.38
2023-03-05T15:25:00.938Z,100353.81
2023-03-05T15:27:27.506Z,100346.56
2023-03-05T15:29:53.920Z,100351.25
2023-03-05T15:32:20.339Z,100352.56
2023-03-05T15:34:46.984Z,100349.13
2023-03-05T15:37:13.422Z,100352.16
2023-03-05T15:39:39.791Z,100351.22
2023-03-05T15:42:06.632Z,100345.94
2023-03-05T15:44:33.064Z,100346.31
2023-03-05T15:46:59.423Z,100344.34
2023-03-05T15:49:25.959Z,100343.19
2023-03-05T15:51:52.485Z,100342.63
2023-03-05T15:54:19.165Z,100337.56
2023-03-05T15:56:45.546Z,100341.75
2023-03-05T15:59:13.379Z,100343.78
2023-03-05T16:01:43.556Z,100342.41
2023-03-05T16:04:10.123Z,100340.69
2023-03-05T16:06:36.914Z,100329.44
2023-03-05T16:09:05.234Z,100335.81
2023-03-05T16:11:35.140Z,100320.81
2023-03-05T16:14:08.661Z,100314.97
2023-03-05T16:16:35.466Z,100327.63
2023-03-05T16:19:04.627Z,100321.69
2023-03-05T16:21:31.647Z,100323.34
2023-03-05T16:23:59.464Z,100327.47
2023-03-05T16:26:25.872Z,100327.19
2023-03-05T16:28:52.260Z,100335.69
2023-03-05T16:31:18.638Z,100325.47
2023-03-05T16:33:45.022Z,100325.75
2023-03-05T16:36:11.314Z,100320.59
2023-03-05T16:38:38.068Z,100323.25
2023-03-05T16:41:08.863Z,100324.13
2023-03-05T16:43:35.405Z,100334.13
2023-03-05T16:46:01.762Z,100327.66
2023-03-05T16:48:29.791Z,100321.94
2023-03-05T16:50:57.742Z,100322.84
2023-03-05T16:53:24.130Z,100316.25
2023-03-05T16:55:50.520Z,100319.72
2023-03-05T16:58:16.909Z,100326.88
2023-03-05T17:00:43.379Z,100325.88
2023-03-05T17:03:09.790Z,100321.59
2023-03-05T17:05:37.233Z,100330.94
2023-03-05T17:08:04.315Z,100329.78
2023-03-05T17:10:31.318Z,100338.44
2023-03-05T17:12:57.820Z,100339.09
2023-03-05T17:15:24.265Z,100334.94
2023-03-05T17:17:50.780Z,100327.66
2023-03-05T17:24:23.409Z,100328.59
2023-03-05T17:27:08.418Z,100331.94
2023-03-05T17:32:46.243Z,100333.28
2023-03-05T17:35:22.635Z,100330.94
2023-03-05T17:37:49.957Z,100322.97
2023-03-05T17:40:16.946Z,100316.59
2023-03-05T17:42:43.426Z,100317.25
2023-03-05T17:45:10.132Z,100314.69
2023-03-05T17:47:36.840Z,100323.66
2023-03-05T17:50:03.531Z,100313.47
2023-03-05T17:52:30.166Z,100311.91
2023-03-05T17:54:57.355Z,100321.97
2023-03-05T17:57:24.321Z,100304.63
2023-03-05T17:59:50.677Z,100298.78
2023-03-05T18:02:17.071Z,100294.88
2023-03-05T18:04:44.018Z,100308.44
2023-03-05T18:07:10.629Z,100298.78
2023-03-05T18:09:37.005Z,100304.84
2023-03-05T18:12:03.493Z,100301.72
2023-03-05T18:14:29.861Z,100315.25
2023-03-05T18:16:58.068Z,100308.63
2023-03-05T18:19:25.151Z,100313.13
2023-03-05T18:21:51.940Z,100300.69
2023-03-05T18:24:18.316Z,100307.63
2023-03-05T18:26:44.730Z,100308.56
2023-03-05T18:29:11.483Z,100301.59
2023-03-05T18:31:37.851Z,100300.69
2023-03-05T18:34:04.234Z,100298.91
2023-03-05T18:36:30.658Z,100308.88
2023-03-05T18:38:57.019Z,100297.69
2023-03-05T18:41:27.631Z,100296.47
2023-03-05T18:43:54.663Z,100297.88
2023-03-05T18:46:21.207Z,100291.28
2023-03-05T18:48:48.106Z,100286.25
2023-03-05T18:51:16.596Z,100289.69
2023-03-05T18:53:42.965Z,100290.47
2023-03-05T18:56:09.884Z,100286.59
2023-03-05T18:58:37.034Z,100293.28
2023-03-05T19:01:04.202Z,100288.47
2023-03-05T19:03:30.633Z,100293.50
2023-03-05T19:05:57.134Z,100284.22
2023-03-05T19:08:23.496Z,100284.34
2023-03-05T19:10:49.929Z,100281.53
2023-03-05T19:13:37.149Z,100282.31
2023-03-05T19:16:13.423Z,100280.88
2023-03-05T19:18:49.697Z,100278.97
2023-03-05T19:21:16.057Z,100278.97
2023-03-05T19:23:42.422Z,100272.38
2023-03-05T19:26:09.146Z,100272.25
2023-03-05T19:28:35.517Z,100271.69
2023-03-05T19:31:01.988Z,100271.16
2023-03-05T19:33:28.394Z,100274.63
2023-03-05T19:35:54.815Z,100273.47
2023-03-05T19:38:21.241Z,100271.16
2023-03-05T19:40:47.771Z,100270.34
2023-03-05T19:43:14.193Z,100269.25
2023-03-05T19:45:40.624Z,100257.25
2023-03-05T19:48:07.225Z,100253.03
2023-03-05T19:50:34.609Z,100256.25
2023-03-05T19:53:01.126Z,100254.91
2023-03-05T19:55:27.534Z,100248.09
2023-03-05T19:57:53.898Z,100260.03
2023-03-05T20:00:20.570Z,100253.91
2023-03-05T20:02:48.542Z,100251.44
2023-03-05T20:05:14.928Z,100251.88
2023-03-05T20:07:41.287Z,100250.91
2023-03-05T20:10:07.940Z,100241.84
2023-03-05T20:12:36.284Z,100249.22
2023-03-05T20:15:02.765Z,100242.28
2023-03-05T20:17:29.127Z,100240.38
2023-03-05T20:19:58.853Z,100234.22
2023-03-05T20:22:25.252Z,100236.81
2023-03-05T20:24:51.646Z,100227.41
2023-03-05T20:27:18.011Z,100226.50
2023-03-05T20:29:44.382Z,100237.44
2023-03-05T20:32:10.787Z,100224.81
2023-03-05T20:34:37.146Z,100229.72
2023-03-05T20:37:04.925Z,100226.38
2023-03-05T20:39:31.294Z,100228.47
2023-03-05T20:41:57.689Z,100226.81
2023-03-05T20:44:24.141Z,100226.38
2023-03-05T20:47:02.541Z,100227.47
2023-03-05T20:49:29.171Z,100218.78
2023-03-05T20:51:55.757Z,100213.28
2023-03-05T20:54:22.240Z,100213.16
2023-03-05T20:56:48.638Z,100203.97
2023-03-05T20:59:15.434Z,100206.91
2023-03-05T21:01:41.894Z,100200.66
2023-03-05T21:04:08.738Z,100198.06
2023-03-05T21:06:35.712Z,100197.84
2023-03-05T21:09:02.292Z,100194.03
2023-03-05T21:11:28.666Z,100202.78
2023-03-05T21:13:55.253Z,100198.84
2023-03-05T21:16:24.569Z,100195.72
2023-03-05T21:18:51.849Z,100188.00
2023-03-05T21:21:19.116Z,100198.09
2023-03-05T21:23:46.122Z,100187.00
2023-03-05T21:26:13.480Z,100186.66
2023-03-05T21:28:41.048Z,100182.19
2023-03-05T21:31:10.013Z,100185.56
2023-03-05T21:33:37.066Z,100186.56
2023-03-05T21:36:04.574Z,100182.19
2023-03-05T21:38:33.801Z,100168.53
2023-03-05T21:41:00.324Z,100179.50
2023-03-05T21:43:27.436Z,100170.44
2023-03-05T21:45:57.182Z,100169.66
2023-03-05T21:48:24.619Z,100169.31
2023-03-05T21:50:51.161Z,100151.88
2023-03-05T21:53:19.013Z,100158.00
2023-03-05T21:56:05.342Z,100153.44
2023-03-05T21:58:33.222Z,100144.16
2023-03-05T22:00:59.832Z,100146.50
2023-03-05T22:03:27.546Z,100141.66
2023-03-05T22:05:54.965Z,100135.88
2023-03-05T22:08:22.930Z,100141.34
2023-03-05T22:10:49.345Z,100132.97
2023-03-05T22:13:17.729Z,100131.66
2023-03-05T22:15:50.572Z,100125.34
2023-03-05T22:18:20.474Z,100123.81
2023-03-05T22:20:47.939Z,100115.88
2023-03-05T22:23:15.352Z,100122.34
2023-03-05T22:25:42.408Z,100114.53
2023-03-05T22:28:10.578Z,100109.25
2023-03-05T22:30:42.835Z,100100.09
2023-03-05T22:33:09.675Z,100103.13
2023-03-05T22:35:39.046Z,100103.13
2023-03-05T22:38:05.476Z,100099.75
2023-03-05T22:40:31.875Z,100093.59
2023-03-05T22:42:58.246Z,100084.00
2023-03-05T22:45:24.599Z,100084.00
2023-03-05T22:47:51.411Z,100082.88
2023-03-05T22:50:18.298Z,100079.66
2023-03-05T22:52:44.817Z,100073.81
2023-03-05T22:55:13.489Z,100070.44
2023-03-05T22:57:40.312Z,100064.78
2023-03-05T23:00:13.243Z,100058.47
2023-03-05T23:02:41.530Z,100063.88
2023-03-05T23:05:08.755Z,100058.75
2023-03-05T23:07:37.510Z,100054.81
2023-03-05T23:10:19.486Z,100043.53
2023-03-05T23:12:49.954Z,100042.25
2023-03-05T23:15:20.063Z,100044.25
2023-03-05T23:17:46.632Z,100027.44
2023-03-05T23:20:16.746Z,100040.03
2023-03-05T23:22:45.077Z,100029.59
2023-03-05T23:25:13.368Z,100031.84
2023-03-05T23:27:40.637Z,100032.31
2023-03-05T23:30:21.628Z,100033.81
2023-03-05T23:33:14.044Z,100036.16
2023-03-05T23:35:55.243Z,100029.78
2023-03-05T23:38:22.576Z,100029.81
2023-03-05T23:40:53.495Z,100023.75
2023-03-05T23:43:20.857Z,100025.28
2023-03-05T23:45:49.210Z,100026.50
2023-03-05T23:48:16.584Z,100022.66
2023-03-05T23:50:47.618Z,100017.88
2023-03-05T23:53:20.446Z,100016.31
2023-03-05T23:55:47.706Z,100000.75
2023-03-05T23:58:15.892Z,99999.00
